sensor_id;sensor_type;location;lat;lon;timestamp;pressure;altitude;pressure_sealevel;temperature;humidity
60170;BME280;46042;49.444;6.862;2023-03-01T00:00:07;99581.16;;;-2.89;82.20
60170;BME280;46042;49.444;6.862;2023-03-01T00:02:34;99574.28;;;-2.90;82.50
60170;BME280;46042;49.444;6.862;2023-03-01T00:05:00;99569.13;;;-2.90;83.14
60170;BME280;46042;49.444;6.862;2023-03-01T00:07:27;99577.75;;;-2.89;83.56
60170;BME280;46042;49.444;6.862;2023-03-01T00:09:54;99578.56;;;-2.92;82.96
60170;BME280;46042;49.444;6.862;2023-03-01T00:12:20;99581.13;;;-2.93;83.25
60170;BME280;46042;49.444;6.862;2023-03-01T00:14:47;99576.00;;;-2.95;83.25
60170;BME280;46042;49.444;6.862;2023-03-01T00:17:13;99577.69;;;-2.92;83.07
60170;BME280;46042;49.444;6.862;2023-03-01T00:19:40;99577.72;;;-2.91;83.35
60170;BME280;46042;49.444;6.862;2023-03-01T00:22:07;99582.00;;;-2.93;82.87
60170;BME280;46042;49.444;6.862;2023-03-01T00:24:33;99576.84;;;-2.91;83.52
60170;BME280;46042;49.444;6.862;2023-03-01T00:27:00;99569.97;;;-2.91;83.27
60170;BME280;46042;49.444;6.862;2023-03-01T00:29:26;99568.28;;;-2.90;83.35
60170;BME280;46042;49.444;6.862;2023-03-01T00:31:53;99566.53;;;-2.91;83.25
60170;BME280;46042;49.444;6.862;2023-03-01T00:34:20;99570.84;;;-2.90;82.97
60170;BME280;46042;49.444;6.862;2023-03-01T00:36:46;99566.53;;;-2.93;83.89
60170;BME280;46042;49.444;6.862;2023-03-01T00:39:14;99562.22;;;-2.92;84.14
60170;BME280;46042;49.444;6.862;2023-03-01T00:41:42;99566.53;;;-2.91;83.78
60170;BME280;46042;49.444;6.862;2023-03-01T00:44:09;99566.53;;;-2.91;83.54
60170;BME280;46042;49.444;6.862;2023-03-01T00:46:36;99568.25;;;-2.93;82.76
60170;BME280;46042;49.444;6.862;2023-03-01T00:49:03;99557.91;;;-2.96;83.84
60170;BME280;46042;49.444;6.862;2023-03-01T00:51:31;99553.63;;;-2.97;83.02
60170;BME280;46042;49.444;6.862;2023-03-01T00:54:00;99563.91;;;-3.02;83.95
60170;BME280;46042;49.444;6.862;2023-03-01T00:56:28;99557.91;;;-3.03;83.61
60170;BME280;46042;49.444;6.862;2023-03-01T00:58:55;99554.47;;;-3.05;84.19
60170;BME280;46042;49.444;6.862;2023-03-01T01:01:25;99551.88;;;-3.08;84.26
60170;BME280;46042;49.444;6.862;2023-03-01T01:03:59;99558.75;;;-3.07;83.95
60170;BME280;46042;49.444;6.862;2023-03-01T01:06:28;99557.00;;;-3.11;84.16
60170;BME280;46042;49.444;6.862;2023-03-01T01:08:56;99556.16;;;-3.11;84.08
60170;BME280;46042;49.444;6.862;2023-03-01T01:11:25;99557.84;;;-3.15;84.58
60170;BME280;46042;49.444;6.862;2023-03-01T01:13:52;99559.56;;;-3.16;84.16
60170;BME280;46042;49.444;6.862;2023-03-01T01:16:19;99566.41;;;-3.18;84.35
60170;BME280;46042;49.444;6.862;2023-03-01T01:18:46;99569.00;;;-3.19;84.98
60170;BME280;46042;49.444;6.862;2023-03-01T01:21:16;99558.66;;;-3.25;85.96
60170;BME280;46042;49.444;6.862;2023-03-01T01:23:44;99560.41;;;-3.21;85.51
60170;BME280;46042;49.444;6.862;2023-03-01T01:26:17;99557.84;;;-3.21;85.31
60170;BME280;46042;49.444;6.862;2023-03-01T01:28:45;99561.25;;;-3.21;86.05
60170;BME280;46042;49.444;6.862;2023-03-01T01:31:12;99554.38;;;-3.23;86.35
60170;BME280;46042;49.444;6.862;2023-03-01T01:33:39;99559.53;;;-3.22;86.58
60170;BME280;46042;49.444;6.862;2023-03-01T01:36:07;99544.09;;;-3.20;86.59
60170;BME280;46042;49.444;6.862;2023-03-01T01:38:34;99545.81;;;-3.19;86.53
60170;BME280;46042;49.444;6.862;2023-03-01T01:41:01;99544.09;;;-3.20;86.46
60170;BME280;46042;49.444;6.862;2023-03-01T01:43:32;99544.97;;;-3.17;86.60
60170;BME280;46042;49.444;6.862;2023-03-01T01:46:41;99542.41;;;-3.17;86.21
60170;BME280;46042;49.444;6.862;2023-03-01T01:48:54;99544.97;;;-3.15;86.56
60170;BME280;46042;49.444;6.862;2023-03-01T01:51:26;99545.84;;;-3.15;86.30
60170;BME280;46042;49.444;6.862;2023-03-01T01:53:59;99536.38;;;-3.16;86.30
60170;BME280;46042;49.444;6.862;2023-03-01T01:56:27;99535.53;;;-3.15;86.64
60170;BME280;46042;49.444;6.862;2023-03-01T01:58:55;99527.75;;;-3.18;86.30
60170;BME280;46042;49.444;6.862;2023-03-01T02:01:23;99528.63;;;-3.19;86.29
60170;BME280;46042;49.444;6.862;2023-03-01T02:03:50;99522.63;;;-3.19;86.82
60170;BME280;46042;49.444;6.862;2023-03-01T02:06:22;99522.59;;;-3.18;86.60
60170;BME280;46042;49.444;6.862;2023-03-01T02:08:59;99514.88;;;-3.19;86.21
60170;BME280;46042;49.444;6.862;2023-03-01T02:11:29;99507.16;;;-3.22;86.52
60170;BME280;46042;49.444;6.862;2023-03-01T02:13:56;99501.97;;;-3.21;86.25
60170;BME280;46042;49.444;6.862;2023-03-01T02:16:22;99502.00;;;-3.22;86.24
60170;BME280;46042;49.444;6.862;2023-03-01T02:18:50;99510.56;;;-3.23;86.57
60170;BME280;46042;49.444;6.862;2023-03-01T02:23:54;99502.84;;;-3.23;87.02
60170;BME280;46042;49.444;6.862;2023-03-01T02:26:42;99491.66;;;-3.25;87.10
60170;BME280;46042;49.444;6.862;2023-03-01T02:29:11;99485.63;;;-3.29;85.89
60170;BME280;46042;49.444;6.862;2023-03-01T02:31:38;99485.63;;;-3.31;86.30
60170;BME280;46042;49.444;6.862;2023-03-01T02:34:16;99481.31;;;-3.32;86.26
60170;BME280;46042;49.444;6.862;2023-03-01T02:36:53;99475.28;;;-3.35;86.01
60170;BME280;46042;49.444;6.862;2023-03-01T02:39:34;99464.13;;;-3.37;86.46
60170;BME280;46042;49.444;6.862;2023-03-01T02:42:04;99466.72;;;-3.39;85.56
60170;BME280;46042;49.444;6.862;2023-03-01T02:44:31;99465.84;;;-3.41;86.35
60170;BME280;46042;49.444;6.862;2023-03-01T02:47:01;99467.53;;;-3.46;87.66
60170;BME280;46042;49.444;6.862;2023-03-01T02:49:31;99464.94;;;-3.43;87.37
60170;BME280;46042;49.444;6.862;2023-03-01T02:52:26;99454.66;;;-3.48;86.78
60170;BME280;46042;49.444;6.862;2023-03-01T02:55:10;99452.06;;;-3.48;86.22
60170;BME280;46042;49.444;6.862;2023-03-01T02:57:41;99458.94;;;-3.50;86.48
60170;BME280;46042;49.444;6.862;2023-03-01T03:00:11;99454.63;;;-3.52;87.14
60170;BME280;46042;49.444;6.862;2023-03-01T03:02:50;99445.16;;;-3.55;85.97
60170;BME280;46042;49.444;6.862;2023-03-01T03:05:23;99448.56;;;-3.59;85.84
60170;BME280;46042;49.444;6.862;2023-03-01T03:07:50;99447.72;;;-3.64;87.55
60170;BME280;46042;49.444;6.862;2023-03-01T03:12:54;99439.97;;;-3.67;87.12
60170;BME280;46042;49.444;6.862;2023-03-01T03:15:22;99436.50;;;-3.71;86.55
60170;BME280;46042;49.444;6.862;2023-03-01T03:17:50;99438.19;;;-3.75;87.25
60170;BME280;46042;49.444;6.862;2023-03-01T03:20:20;99436.47;;;-3.76;86.97
60170;BME280;46042;49.444;6.862;2023-03-01T03:22:49;99434.75;;;-3.77;87.26
60170;BME280;46042;49.444;6.862;2023-03-01T03:25:17;99427.00;;;-3.81;88.13
60170;BME280;46042;49.444;6.862;2023-03-01T03:27:45;99430.47;;;-3.81;89.33
60170;BME280;46042;49.444;6.862;2023-03-01T03:30:15;99433.88;;;-3.82;89.34
60170;BME280;46042;49.444;6.862;2023-03-01T03:32:44;99427.00;;;-3.81;89.66
60170;BME280;46042;49.444;6.862;2023-03-01T03:35:46;99421.00;;;-3.82;90.49
60170;BME280;46042;49.444;6.862;2023-03-01T03:38:16;99419.28;;;-3.81;90.72
60170;BME280;46042;49.444;6.862;2023-03-01T03:40:45;99412.44;;;-3.79;90.08
60170;BME280;46042;49.444;6.862;2023-03-01T03:43:15;99416.72;;;-3.78;90.73
60170;BME280;46042;49.444;6.862;2023-03-01T03:45:44;99415.88;;;-3.79;90.76
60170;BME280;46042;49.444;6.862;2023-03-01T03:48:11;99406.44;;;-3.77;90.98
60170;BME280;46042;49.444;6.862;2023-03-01T03:50:39;99404.72;;;-3.75;91.34
60170;BME280;46042;49.444;6.862;2023-03-01T03:53:09;99407.31;;;-3.72;91.28
60170;BME280;46042;49.444;6.862;2023-03-01T03:55:36;99404.75;;;-3.73;90.46
60170;BME280;46042;49.444;6.862;2023-03-01T03:58:07;99403.91;;;-3.72;90.26
60170;BME280;46042;49.444;6.862;2023-03-01T04:00:39;99396.16;;;-3.74;90.51
60170;BME280;46042;49.444;6.862;2023-03-01T04:03:07;99396.16;;;-3.74;91.09
60170;BME280;46042;49.444;6.862;2023-03-01T04:05:35;99391.88;;;-3.73;90.88
60170;BME280;46042;49.444;6.862;2023-03-01T04:08:02;99386.72;;;-3.72;91.81
60170;BME280;46042;49.444;6.862;2023-03-01T04:10:31;99393.59;;;-3.72;88.99
60170;BME280;46042;49.444;6.862;2023-03-01T04:12:58;99394.44;;;-3.73;89.99
60170;BME280;46042;49.444;6.862;2023-03-01T04:15:26;99391.84;;;-3.75;89.36
60170;BME280;46042;49.444;6.862;2023-03-01T04:17:54;99400.44;;;-3.76;89.19
60170;BME280;46042;49.444;6.862;2023-03-01T04:20:27;99396.97;;;-3.79;89.70
60170;BME280;46042;49.444;6.862;2023-03-01T04:23:07;99391.81;;;-3.82;88.62
60170;BME280;46042;49.444;6.862;2023-03-01T04:25:38;99401.25;;;-3.84;90.98
60170;BME280;46042;49.444;6.862;2023-03-01T04:28:06;99392.69;;;-3.83;90.60
60170;BME280;46042;49.444;6.862;2023-03-01T04:30:32;99396.09;;;-3.84;89.35
60170;BME280;46042;49.444;6.862;2023-03-01T04:33:06;99389.22;;;-3.89;89.76
60170;BME280;46042;49.444;6.862;2023-03-01T04:35:35;99389.22;;;-3.92;89.39
60170;BME280;46042;49.444;6.862;2023-03-01T04:38:04;99398.63;;;-3.92;90.65
60170;BME280;46042;49.444;6.862;2023-03-01T04:40:31;99391.78;;;-3.92;90.80
60170;BME280;46042;49.444;6.862;2023-03-01T04:42:58;99382.34;;;-3.94;90.69
60170;BME280;46042;49.444;6.862;2023-03-01T04:45:25;99384.03;;;-3.96;90.58
60170;BME280;46042;49.444;6.862;2023-03-01T04:47:51;99400.31;;;-4.02;92.15
60170;BME280;46042;49.444;6.862;2023-03-01T04:50:21;99385.72;;;-4.03;91.90
60170;BME280;46042;49.444;6.862;2023-03-01T04:52:50;99386.56;;;-4.04;92.80
60170;BME280;46042;49.444;6.862;2023-03-01T04:55:17;99380.56;;;-4.05;92.64
60170;BME280;46042;49.444;6.862;2023-03-01T04:57:45;99389.16;;;-4.04;93.49
60170;BME280;46042;49.444;6.862;2023-03-01T05:00:13;99393.44;;;-4.03;92.61
60170;BME280;46042;49.444;6.862;2023-03-01T05:05:15;99388.31;;;-3.98;92.95
60170;BME280;46042;49.444;6.862;2023-03-01T05:07:41;99394.31;;;-4.00;92.67
60170;BME280;46042;49.444;6.862;2023-03-01T05:10:09;99386.63;;;-3.96;92.90
60170;BME280;46042;49.444;6.862;2023-03-01T05:12:36;99390.88;;;-3.97;92.50
60170;BME280;46042;49.444;6.862;2023-03-01T05:15:04;99392.63;;;-3.97;93.03
60170;BME280;46042;49.444;6.862;2023-03-01T05:17:33;99381.47;;;-3.96;94.13
60170;BME280;46042;49.444;6.862;2023-03-01T05:20:00;99384.94;;;-3.93;94.50
60170;BME280;46042;49.444;6.862;2023-03-01T05:22:27;99384.94;;;-3.90;93.85
60170;BME280;46042;49.444;6.862;2023-03-01T05:24:54;99389.22;;;-3.87;94.25
60170;BME280;46042;49.444;6.862;2023-03-01T05:27:21;99389.25;;;-3.86;94.21
60170;BME280;46042;49.444;6.862;2023-03-01T05:29:48;99378.97;;;-3.84;93.98
60170;BME280;46042;49.444;6.862;2023-03-01T05:32:15;99380.69;;;-3.83;93.33
60170;BME280;46042;49.444;6.862;2023-03-01T05:34:42;99368.66;;;-3.81;94.05
60170;BME280;46042;49.444;6.862;2023-03-01T05:37:08;99373.81;;;-3.78;93.88
60170;BME280;46042;49.444;6.862;2023-03-01T05:39:35;99371.28;;;-3.76;93.31
60170;BME280;46042;49.444;6.862;2023-03-01T05:42:02;99383.28;;;-3.74;93.86
60170;BME280;46042;49.444;6.862;2023-03-01T05:44:29;99377.28;;;-3.74;93.32
60170;BME280;46042;49.444;6.862;2023-03-01T05:46:56;99380.69;;;-3.74;93.58
60170;BME280;46042;49.444;6.862;2023-03-01T05:49:22;99378.13;;;-3.75;92.77
60170;BME280;46042;49.444;6.862;2023-03-01T05:51:53;99365.22;;;-3.78;92.78
60170;BME280;46042;49.444;6.862;2023-03-01T05:54:20;99360.94;;;-3.82;92.65
60170;BME280;46042;49.444;6.862;2023-03-01T05:56:48;99364.34;;;-3.87;92.11
60170;BME280;46042;49.444;6.862;2023-03-01T05:59:14;99365.22;;;-3.88;93.91
60170;BME280;46042;49.444;6.862;2023-03-01T06:01:42;99367.75;;;-3.89;93.98
60170;BME280;46042;49.444;6.862;2023-03-01T06:04:09;99369.50;;;-3.90;94.57
60170;BME280;46042;49.444;6.862;2023-03-01T06:06:37;99356.63;;;-3.90;94.64
60170;BME280;46042;49.444;6.862;2023-03-01T06:09:07;99361.75;;;-3.90;94.22
60170;BME280;46042;49.444;6.862;2023-03-01T06:11:36;99359.19;;;-3.88;95.66
60170;BME280;46042;49.444;6.862;2023-03-01T06:14:03;99355.75;;;-3.89;95.71
60170;BME280;46042;49.444;6.862;2023-03-01T06:16:30;99356.66;;;-3.85;94.99
60170;BME280;46042;49.444;6.862;2023-03-01T06:18:57;99355.78;;;-3.82;95.80
60170;BME280;46042;49.444;6.862;2023-03-01T06:21:24;99358.34;;;-3.79;94.41
60170;BME280;46042;49.444;6.862;2023-03-01T06:23:50;99357.50;;;-3.78;94.85
60170;BME280;46042;49.444;6.862;2023-03-01T06:26:18;99363.53;;;-3.78;95.30
60170;BME280;46042;49.444;6.862;2023-03-01T06:28:45;99357.53;;;-3.75;94.91
60170;BME280;46042;49.444;6.862;2023-03-01T06:31:12;99353.25;;;-3.73;94.59
60170;BME280;46042;49.444;6.862;2023-03-01T06:33:39;99354.97;;;-3.72;94.74
60170;BME280;46042;49.444;6.862;2023-03-01T06:36:06;99354.13;;;-3.71;94.35
60170;BME280;46042;49.444;6.862;2023-03-01T06:38:33;99356.69;;;-3.68;95.72
60170;BME280;46042;49.444;6.862;2023-03-01T06:41:00;99361.00;;;-3.64;95.16
60170;BME280;46042;49.444;6.862;2023-03-01T06:43:27;99354.16;;;-3.60;95.06
60170;BME280;46042;49.444;6.862;2023-03-01T06:45:54;99363.63;;;-3.54;95.40
60170;BME280;46042;49.444;6.862;2023-03-01T06:48:20;99361.03;;;-3.51;94.78
60170;BME280;46042;49.444;6.862;2023-03-01T06:50:47;99365.34;;;-3.46;95.48
60170;BME280;46042;49.444;6.862;2023-03-01T06:53:13;99366.22;;;-3.40;95.13
60170;BME280;46042;49.444;6.862;2023-03-01T06:55:40;99359.34;;;-3.38;94.89
60170;BME280;46042;49.444;6.862;2023-03-01T06:58:08;99355.06;;;-3.32;94.58
60170;BME280;46042;49.444;6.862;2023-03-01T07:00:35;99353.38;;;-3.28;94.55
60170;BME280;46042;49.444;6.862;2023-03-01T07:03:02;99358.53;;;-3.25;94.55
60170;BME280;46042;49.444;6.862;2023-03-01T07:05:29;99357.69;;;-3.15;94.56
60170;BME280;46042;49.444;6.862;2023-03-01T07:07:56;99358.56;;;-3.05;93.56
60170;BME280;46042;49.444;6.862;2023-03-01T07:10:23;99348.25;;;-2.98;93.83
60170;BME280;46042;49.444;6.862;2023-03-01T07:12:49;99357.69;;;-2.90;93.94
60170;BME280;46042;49.444;6.862;2023-03-01T07:15:16;99356.00;;;-2.81;93.34
60170;BME280;46042;49.444;6.862;2023-03-01T07:17:43;99359.44;;;-2.72;93.22
60170;BME280;46042;49.444;6.862;2023-03-01T07:20:11;99357.69;;;-2.59;92.51
60170;BME280;46042;49.444;6.862;2023-03-01T07:22:40;99366.28;;;-2.52;92.21
60170;BME280;46042;49.444;6.862;2023-03-01T07:25:07;99347.38;;;-2.43;91.77
60170;BME280;46042;49.444;6.862;2023-03-01T07:27:34;99340.47;;;-2.33;91.97
60170;BME280;46042;49.444;6.862;2023-03-01T07:30:01;99344.75;;;-2.20;90.82
60170;BME280;46042;49.444;6.862;2023-03-01T07:32:28;99335.22;;;-2.08;89.78
60170;BME280;46042;49.444;6.862;2023-03-01T07:34:54;99324.00;;;-1.95;90.46
60170;BME280;46042;49.444;6.862;2023-03-01T07:37:21;99337.63;;;-1.65;89.82
60170;BME280;46042;49.444;6.862;2023-03-01T07:39:48;99329.50;;;-1.06;85.91
60170;BME280;46042;49.444;6.862;2023-03-01T07:42:14;99318.47;;;-0.28;87.47
60170;BME280;46042;49.444;6.862;2023-03-01T07:44:41;99320.41;;;0.28;80.84
60170;BME280;46042;49.444;6.862;2023-03-01T07:47:07;99317.13;;;0.78;77.47
60170;BME280;46042;49.444;6.862;2023-03-01T07:49:34;99320.97;;;1.10;74.36
60170;BME280;46042;49.444;6.862;2023-03-01T07:52:01;99316.50;;;1.18;73.19
60170;BME280;46042;49.444;6.862;2023-03-01T07:54:27;99313.41;;;1.48;69.84
60170;BME280;46042;49.444;6.862;2023-03-01T07:56:56;99307.16;;;2.04;71.36
60170;BME280;46042;49.444;6.862;2023-03-01T07:59:23;99312.34;;;2.04;70.36
60170;BME280;46042;49.444;6.862;2023-03-01T08:01:56;99308.78;;;2.09;67.43
60170;BME280;46042;49.444;6.862;2023-03-01T08:04:23;99313.19;;;2.47;68.93
60170;BME280;46042;49.444;6.862;2023-03-01T08:06:51;99312.88;;;2.62;66.24
60170;BME280;46042;49.444;6.862;2023-03-01T08:09:18;99315.13;;;3.14;65.17
60170;BME280;46042;49.444;6.862;2023-03-01T08:11:44;99311.78;;;3.77;63.09
60170;BME280;46042;49.444;6.862;2023-03-01T08:14:11;99315.50;;;4.31;61.03
60170;BME280;46042;49.444;6.862;2023-03-01T08:16:38;99305.34;;;4.79;60.72
60170;BME280;46042;49.444;6.862;2023-03-01T08:19:10;99303.06;;;4.96;58.07
60170;BME280;46042;49.444;6.862;2023-03-01T08:21:37;99299.78;;;5.17;58.30
60170;BME280;46042;49.444;6.862;2023-03-01T08:24:05;99293.00;;;5.63;57.69
60170;BME280;46042;49.444;6.862;2023-03-01T08:26:32;99289.78;;;5.55;55.81
60170;BME280;46042;49.444;6.862;2023-03-01T08:29:00;99284.44;;;6.09;56.56
60170;BME280;46042;49.444;6.862;2023-03-01T08:31:34;99293.72;;;6.40;55.61
60170;BME280;46042;49.444;6.862;2023-03-01T08:34:09;99287.47;;;7.11;54.01
60170;BME280;46042;49.444;6.862;2023-03-01T08:36:39;99276.09;;;6.90;54.28
60170;BME280;46042;49.444;6.862;2023-03-01T08:39:08;99267.91;;;7.80;51.21
60170;BME280;46042;49.444;6.862;2023-03-01T08:41:36;99279.88;;;7.05;52.97
60170;BME280;46042;49.444;6.862;2023-03-01T08:44:03;99273.25;;;6.51;52.38
60170;BME280;46042;49.444;6.862;2023-03-01T08:46:33;99270.63;;;6.51;52.92
60170;BME280;46042;49.444;6.862;2023-03-01T08:49:00;99274.00;;;6.31;50.81
60170;BME280;46042;49.444;6.862;2023-03-01T08:51:26;99268.06;;;6.50;52.06
60170;BME280;46042;49.444;6.862;2023-03-01T08:53:53;99274.66;;;6.60;52.00
60170;BME280;46042;49.444;6.862;2023-03-01T08:56:20;99274.69;;;6.36;53.37
60170;BME280;46042;49.444;6.862;2023-03-01T08:58:48;99272.06;;;6.59;52.04
60170;BME280;46042;49.444;6.862;2023-03-01T09:01:17;99266.72;;;6.39;53.13
60170;BME280;46042;49.444;6.862;2023-03-01T09:03:45;99267.28;;;7.13;51.14
60170;BME280;46042;49.444;6.862;2023-03-01T09:06:12;99267.47;;;6.43;49.40
60170;BME280;46042;49.444;6.862;2023-03-01T09:08:42;99272.28;;;6.08;52.76
60170;BME280;46042;49.444;6.862;2023-03-01T09:11:12;99259.22;;;6.52;53.97
60170;BME280;46042;49.444;6.862;2023-03-01T09:13:39;99260.28;;;7.34;51.09
60170;BME280;46042;49.444;6.862;2023-03-01T09:16:10;99262.06;;;7.54;49.98
60170;BME280;46042;49.444;6.862;2023-03-01T09:18:38;99257.03;;;7.50;48.64
60170;BME280;46042;49.444;6.862;2023-03-01T09:21:12;99255.44;;;6.82;50.36
60170;BME280;46042;49.444;6.862;2023-03-01T09:23:41;99250.16;;;6.39;50.33
60170;BME280;46042;49.444;6.862;2023-03-01T09:26:11;99249.63;;;5.32;52.32
60170;BME280;46042;49.444;6.862;2023-03-01T09:28:38;99245.88;;;6.14;53.14
60170;BME280;46042;49.444;6.862;2023-03-01T09:31:07;99253.94;;;5.59;53.65
60170;BME280;46042;49.444;6.862;2023-03-01T09:33:34;99246.16;;;5.82;54.05
60170;BME280;46042;49.444;6.862;2023-03-01T09:36:03;99241.38;;;6.18;51.90
60170;BME280;46042;49.444;6.862;2023-03-01T09:38:30;99235.56;;;5.86;54.57
60170;BME280;46042;49.444;6.862;2023-03-01T09:40:58;99244.22;;;5.88;53.55
60170;BME280;46042;49.444;6.862;2023-03-01T09:43:31;99240.19;;;5.53;53.71
60170;BME280;46042;49.444;6.862;2023-03-01T09:46:06;99237.69;;;5.76;54.54
60170;BME280;46042;49.444;6.862;2023-03-01T09:48:55;99227.19;;;6.01;52.38
60170;BME280;46042;49.444;6.862;2023-03-01T09:51:41;99219.63;;;7.25;52.21
60170;BME280;46042;49.444;6.862;2023-03-01T09:54:09;99223.69;;;7.73;48.68
60170;BME280;46042;49.444;6.862;2023-03-01T09:56:54;99223.50;;;6.74;50.57
60170;BME280;46042;49.444;6.862;2023-03-01T09:59:28;99216.91;;;7.06;48.91
60170;BME280;46042;49.444;6.862;2023-03-01T10:01:59;99214.97;;;7.32;49.09
60170;BME280;46042;49.444;6.862;2023-03-01T10:04:49;99213.47;;;7.66;48.05
60170;BME280;46042;49.444;6.862;2023-03-01T10:07:32;99211.97;;;7.61;48.40
60170;BME280;46042;49.444;6.862;2023-03-01T10:10:06;99202.38;;;8.92;47.10
60170;BME280;46042;49.444;6.862;2023-03-01T10:12:40;99193.41;;;10.30;45.86
60170;BME280;46042;49.444;6.862;2023-03-01T10:17:53;99195.47;;;10.41;42.56
60170;BME280;46042;49.444;6.862;2023-03-01T10:20:28;99192.09;;;10.69;43.35
60170;BME280;46042;49.444;6.862;2023-03-01T10:22:56;99184.75;;;9.95;42.45
60170;BME280;46042;49.444;6.862;2023-03-01T10:28:20;99189.66;;;9.18;43.74
60170;BME280;46042;49.444;6.862;2023-03-01T10:30:51;99187.69;;;7.76;45.80
60170;BME280;46042;49.444;6.862;2023-03-01T10:33:33;99182.25;;;8.56;46.96
60170;BME280;46042;49.444;6.862;2023-03-01T10:36:02;99186.53;;;8.20;45.99
60170;BME280;46042;49.444;6.862;2023-03-01T10:38:31;99174.44;;;9.59;46.70
60170;BME280;46042;49.444;6.862;2023-03-01T10:41:00;99174.88;;;9.67;44.71
60170;BME280;46042;49.444;6.862;2023-03-01T10:43:51;99172.34;;;9.32;45.12
60170;BME280;46042;49.444;6.862;2023-03-01T10:46:32;99173.47;;;9.10;44.36
60170;BME280;46042;49.444;6.862;2023-03-01T10:49:18;99180.72;;;8.14;44.17
60170;BME280;46042;49.444;6.862;2023-03-01T10:51:49;99179.53;;;8.58;48.14
60170;BME280;46042;49.444;6.862;2023-03-01T10:54:20;99170.06;;;10.23;47.36
60170;BME280;46042;49.444;6.862;2023-03-01T10:56:52;99172.13;;;11.26;44.04
60170;BME280;46042;49.444;6.862;2023-03-01T10:59:33;99171.19;;;11.42;43.59
60170;BME280;46042;49.444;6.862;2023-03-01T11:02:28;99162.41;;;10.51;43.03
60170;BME280;46042;49.444;6.862;2023-03-01T11:05:17;62137.28;;;-147.77;100.00
60170;BME280;46042;49.444;6.862;2023-03-01T11:07:56;62137.28;;;-147.77;100.00
60170;BME280;46042;49.444;6.862;2023-03-01T11:10:28;62137.28;;;-147.77;100.00
60170;BME280;46042;49.444;6.862;2023-03-01T11:13:18;62137.28;;;-147.77;100.00
60170;BME280;46042;49.444;6.862;2023-03-01T11:16:06;62137.28;;;-147.77;100.00
60170;BME280;46042;49.444;6.862;2023-03-01T11:18:34;62137.28;;;-147.77;100.00
60170;BME280;46042;49.444;6.862;2023-03-01T11:21:15;62137.28;;;-147.77;100.00
60170;BME280;46042;49.444;6.862;2023-03-01T11:23:43;62137.28;;;-147.77;100.00
60170;BME280;46042;49.444;6.862;2023-03-01T11:26:15;62137.28;;;-147.77;100.00
60170;BME280;46042;49.444;6.862;2023-03-01T11:28:49;62137.28;;;-147.77;100.00
60170;BME280;46042;49.444;6.862;2023-03-01T11:31:18;62137.28;;;-147.77;100.00
60170;BME280;46042;49.444;6.862;2023-03-01T11:34:05;62137.28;;;-147.77;100.00
60170;BME280;46042;49.444;6.862;2023-03-01T11:36:58;62137.28;;;-147.77;100.00
60170;BME280;46042;49.444;6.862;2023-03-01T11:39:31;62137.28;;;-147.77;100.00
60170;BME280;46042;49.444;6.862;2023-03-01T11:42:12;62137.28;;;-147.77;100.00
60170;BME280;46042;49.444;6.862;2023-03-01T11:44:47;62137.28;;;-147.77;100.00
60170;BME280;46042;49.444;6.862;2023-03-01T11:47:41;62137.28;;;-147.77;100.00
60170;BME280;46042;49.444;6.862;2023-03-01T12:09:48;62137.28;;;-147.77;100.00
60170;BME280;46042;49.444;6.862;2023-03-01T12:15:27;62137.28;;;-147.77;100.00
60170;BME280;46042;49.444;6.862;2023-03-01T12:18:09;62137.28;;;-147.77;100.00
60170;BME280;46042;49.444;6.862;2023-03-01T12:23:37;62137.28;;;-147.77;100.00
60170;BME280;46042;49.444;6.862;2023-03-01T12:29:39;62137.28;;;-147.77;100.00
60170;BME280;46042;49.444;6.862;2023-03-01T12:32:25;62137.28;;;-147.77;100.00
60170;BME280;46042;49.444;6.862;2023-03-01T12:46:44;62137.28;;;-147.77;100.00
60170;BME280;46042;49.444;6.862;2023-03-01T12:49:21;62137.28;;;-147.77;100.00
60170;BME280;46042;49.444;6.862;2023-03-01T12:51:56;62137.28;;;-147.77;100.00
60170;BME280;46042;49.444;6.862;2023-03-01T12:54:30;62137.28;;;-147.77;100.00
60170;BME280;46042;49.444;6.862;2023-03-01T12:57:06;62137.28;;;-147.77;100.00
60170;BME280;46042;49.444;6.862;2023-03-01T13:00:27;62137.28;;;-147.77;100.00
60170;BME280;46042;49.444;6.862;2023-03-01T13:03:03;98999.25;;;10.17;38.99
60170;BME280;46042;49.444;6.862;2023-03-01T13:08:29;98990.38;;;10.34;39.83
60170;BME280;46042;49.444;6.862;2023-03-01T13:11:02;98990.88;;;9.96;42.13
60170;BME280;46042;49.444;6.862;2023-03-01T13:13:30;98991.19;;;9.27;41.61
60170;BME280;46042;49.444;6.862;2023-03-01T13:15:57;98976.84;;;9.17;40.64
60170;BME280;46042;49.444;6.862;2023-03-01T13:20:54;98985.81;;;10.52;42.61
60170;BME280;46042;49.444;6.862;2023-03-01T13:31:06;98974.63;;;12.04;40.91
60170;BME280;46042;49.444;6.862;2023-03-01T13:33:40;62137.28;;;-147.77;100.00
60170;BME280;46042;49.444;6.862;2023-03-01T13:36:08;62137.28;;;-147.77;100.00
60170;BME280;46042;49.444;6.862;2023-03-01T13:44:32;62137.28;;;-147.77;100.00
60170;BME280;46042;49.444;6.862;2023-03-01T13:49:51;62137.28;;;-147.77;100.00
60170;BME280;46042;49.444;6.862;2023-03-01T13:52:40;62137.28;;;-147.77;100.00
60170;BME280;46042;49.444;6.862;2023-03-01T13:57:44;62137.28;;;-147.77;100.00
60170;BME280;46042;49.444;6.862;2023-03-01T14:00:32;62137.28;;;-147.77;100.00
60170;BME280;46042;49.444;6.862;2023-03-01T14:03:17;62137.28;;;-147.77;100.00
60170;BME280;46042;49.444;6.862;2023-03-01T14:06:00;62137.28;;;-147.77;100.00
60170;BME280;46042;49.444;6.862;2023-03-01T14:08:39;62137.28;;;-147.77;100.00
60170;BME280;46042;49.444;6.862;2023-03-01T14:19:29;62137.28;;;-147.77;100.00
60170;BME280;46042;49.444;6.862;2023-03-01T14:22:22;62137.28;;;-147.77;100.00
60170;BME280;46042;49.444;6.862;2023-03-01T14:24:52;62137.28;;;-147.77;100.00
60170;BME280;46042;49.444;6.862;2023-03-01T14:27:20;98924.69;;;10.47;42.03
60170;BME280;46042;49.444;6.862;2023-03-01T14:29:59;98927.03;;;10.52;40.74
60170;BME280;46042;49.444;6.862;2023-03-01T14:32:31;98932.31;;;10.81;39.64
60170;BME280;46042;49.444;6.862;2023-03-01T14:34:59;98930.34;;;10.41;41.50
60170;BME280;46042;49.444;6.862;2023-03-01T14:37:32;98924.63;;;10.33;40.90
60170;BME280;46042;49.444;6.862;2023-03-01T14:40:00;98920.97;;;10.35;40.67
60170;BME280;46042;49.444;6.862;2023-03-01T14:42:31;98922.44;;;10.41;42.58